createdAt,value
2022-12-12T00:05:24.354Z,19
2022-12-12T00:11:24.174Z,18
2022-12-12T00:17:24.166Z,20
2022-12-12T00:23:24.182Z,20
2022-12-12T00:29:24.143Z,19
2022-12-12T00:35:24.274Z,18
2022-12-12T00:41:24.237Z,18
2022-12-12T00:47:24.153Z,18
2022-12-12T00:53:24.156Z,17
2022-12-12T00:59:24.180Z,18
2022-12-12T01:05:24.165Z,17
2022-12-12T01:11:24.144Z,18
2022-12-12T01:17:24.155Z,17
2022-12-12T01:23:24.161Z,18
2022-12-12T01:29:24.212Z,17
2022-12-12T01:35:24.173Z,18
2022-12-12T01:41:24.132Z,18
2022-12-12T01:47:24.151Z,17
2022-12-12T01:53:24.160Z,17
2022-12-12T01:59:24.141Z,17
2022-12-12T02:05:24.154Z,18
2022-12-12T02:11:24.212Z,17
2022-12-12T02:17:24.139Z,16
2022-12-12T02:23:24.125Z,15
2022-12-12T02:29:24.183Z,15
2022-12-12T02:35:24.147Z,14
2022-12-12T02:41:24.131Z,14
2022-12-12T02:47:24.172Z,15
2022-12-12T02:53:24.162Z,14
2022-12-12T02:59:24.126Z,13
2022-12-12T03:05:24.157Z,12
2022-12-12T03:11:24.132Z,12
2022-12-12T03:17:24.135Z,11
2022-12-12T03:23:24.173Z,11
2022-12-12T03:29:24.156Z,11
2022-12-12T03:35:24.129Z,12
2022-12-12T03:41:24.152Z,10
2022-12-12T03:47:24.172Z,12
2022-12-12T03:53:24.185Z,12
2022-12-12T03:59:27.327Z,11
2022-12-12T04:05:24.132Z,11
2022-12-12T04:11:24.145Z,11
2022-12-12T04:17:24.152Z,11
2022-12-12T04:23:24.133Z,10
2022-12-12T04:29:24.179Z,11
2022-12-12T04:35:24.155Z,15
2022-12-12T04:41:24.117Z,11
2022-12-12T04:47:24.122Z,9
2022-12-12T04:53:24.269Z,10
2022-12-12T04:59:24.127Z,11
2022-12-12T05:05:24.126Z,10
2022-12-12T05:11:24.136Z,10
2022-12-12T05:17:24.127Z,11
2022-12-12T05:23:24.122Z,10
2022-12-12T05:29:24.220Z,9
2022-12-12T05:35:24.106Z,10
2022-12-12T05:41:24.118Z,16
2022-12-12T05:47:24.401Z,12
2022-12-12T05:53:24.107Z,11
2022-12-12T05:59:24.102Z,14
2022-12-12T06:05:24.143Z,12
2022-12-12T06:11:24.093Z,11
2022-12-12T06:17:27.162Z,13
2022-12-12T06:23:24.118Z,10
2022-12-12T06:29:24.103Z,11
2022-12-12T06:35:24.114Z,11
2022-12-12T06:41:24.137Z,10
2022-12-12T06:47:24.101Z,11
2022-12-12T06:53:24.096Z,13
2022-12-12T06:59:24.111Z,13
2022-12-12T07:05:24.071Z,11
2022-12-12T07:11:24.363Z,11
2022-12-12T07:17:24.115Z,11
2022-12-12T07:23:24.148Z,16
2022-12-12T07:29:24.092Z,12
2022-12-12T07:35:24.158Z,12
2022-12-12T07:41:24.096Z,17
2022-12-12T07:47:24.091Z,14
2022-12-12T07:53:24.116Z,16
2022-12-12T07:59:24.084Z,15
2022-12-12T08:05:24.068Z,14
2022-12-12T08:11:24.100Z,12
2022-12-12T08:17:24.085Z,11
2022-12-12T08:23:24.085Z,11
2022-12-12T08:29:24.126Z,11
2022-12-12T08:35:24.096Z,10
2022-12-12T08:41:24.153Z,11
2022-12-12T08:47:24.096Z,10
2022-12-12T08:53:24.072Z,11
2022-12-12T08:59:24.072Z,12
2022-12-12T09:05:24.104Z,18
2022-12-12T09:11:24.102Z,12
2022-12-12T09:17:24.080Z,11
2022-12-12T09:23:24.102Z,12
2022-12-12T09:29:24.094Z,13
2022-12-12T09:35:24.068Z,13
2022-12-12T09:41:24.092Z,13
2022-12-12T09:47:24.103Z,13
2022-12-12T09:53:24.058Z,13
2022-12-12T09:59:24.120Z,14
2022-12-12T10:05:24.053Z,12
2022-12-12T10:11:24.052Z,11
2022-12-12T10:17:24.096Z,12
2022-12-12T10:23:24.077Z,12
2022-12-12T10:29:24.115Z,11
2022-12-12T10:35:26.610Z,13
2022-12-12T10:41:24.059Z,12
2022-12-12T10:47:24.068Z,12
2022-12-12T10:53:24.090Z,13
2022-12-12T10:59:24.070Z,11
2022-12-12T11:05:24.088Z,15
2022-12-12T11:11:24.081Z,13
2022-12-12T11:17:24.065Z,13
2022-12-12T11:23:24.085Z,12
2022-12-12T11:29:24.116Z,12
2022-12-12T11:35:24.044Z,12
2022-12-12T11:41:24.046Z,16
2022-12-12T11:47:24.106Z,13
2022-12-12T11:53:24.039Z,12
2022-12-12T11:59:24.111Z,11
2022-12-12T12:05:24.166Z,11
2022-12-12T12:11:24.048Z,13
2022-12-12T12:17:24.044Z,12
2022-12-12T12:23:24.055Z,12
2022-12-12T12:29:24.068Z,11
2022-12-12T12:35:24.061Z,12
2022-12-12T12:41:24.064Z,13
2022-12-12T12:47:24.047Z,11
2022-12-12T12:53:24.058Z,13
2022-12-12T12:59:24.095Z,13
2022-12-12T13:05:24.041Z,15
2022-12-12T13:11:24.056Z,13
2022-12-12T13:17:24.103Z,12
2022-12-12T13:23:24.056Z,14
2022-12-12T13:29:24.035Z,12
2022-12-12T13:35:24.058Z,11
2022-12-12T13:41:24.035Z,14
2022-12-12T13:47:24.040Z,11
2022-12-12T13:53:24.054Z,15
2022-12-12T13:59:24.042Z,15
2022-12-12T14:05:24.036Z,11
2022-12-12T14:11:24.052Z,12
2022-12-12T14:17:24.031Z,12
2022-12-12T14:23:24.043Z,10
2022-12-12T14:29:24.149Z,12
2022-12-12T14:35:24.020Z,12
2022-12-12T14:41:24.008Z,10
2022-12-12T14:47:24.051Z,11
2022-12-12T14:53:24.025Z,11
2022-12-12T14:59:24.101Z,11
2022-12-12T15:05:24.230Z,12
2022-12-12T15:11:24.038Z,11
2022-12-12T15:17:24.027Z,13
2022-12-12T15:23:24.057Z,15
2022-12-12T15:29:24.030Z,17
2022-12-12T15:35:24.022Z,22
2022-12-12T15:41:24.044Z,14
2022-12-12T15:47:24.017Z,15
2022-12-12T15:53:24.016Z,14
2022-12-12T15:59:24.014Z,27
2022-12-12T16:05:24.040Z,40
2022-12-12T16:11:24.073Z,11
2022-12-12T16:17:24.045Z,11
2022-12-12T16:23:23.996Z,12
2022-12-12T16:29:24.009Z,12
2022-12-12T16:35:24.042Z,11
2022-12-12T16:41:24.021Z,12
2022-12-12T16:47:23.992Z,13
2022-12-12T16:53:24.035Z,13
2022-12-12T16:59:24.022Z,11
2022-12-12T17:05:24.012Z,11
2022-12-12T17:11:24.012Z,11
2022-12-12T17:17:24.019Z,12
2022-12-12T17:23:27.113Z,11
2022-12-12T17:29:24.034Z,11
2022-12-12T17:35:23.978Z,16
2022-12-12T17:41:24.000Z,12
2022-12-12T17:47:24.005Z,11
2022-12-12T17:53:23.991Z,12
2022-12-12T17:59:23.969Z,13
2022-12-12T18:05:24.237Z,13
2022-12-12T18:11:23.976Z,13
2022-12-12T18:17:24.032Z,14
2022-12-12T18:23:24.010Z,14
2022-12-12T18:29:24.036Z,15
2022-12-12T18:35:23.981Z,14
2022-12-12T18:41:24.024Z,13
2022-12-12T18:47:24.102Z,16
2022-12-12T18:53:23.990Z,17
2022-12-12T18:59:23.990Z,16
2022-12-12T19:05:23.959Z,16
2022-12-12T19:11:23.979Z,16
2022-12-12T19:17:26.375Z,14
2022-12-12T19:23:24.036Z,18
2022-12-12T19:29:23.971Z,15
2022-12-12T19:35:24.002Z,16
2022-12-12T19:41:23.970Z,15
2022-12-12T19:47:23.966Z,15
2022-12-12T19:53:24.008Z,15
2022-12-12T19:59:23.965Z,16
2022-12-12T20:05:23.971Z,15
2022-12-12T20:11:24.050Z,16
2022-12-12T20:17:23.940Z,15
2022-12-12T20:23:23.955Z,14
2022-12-12T20:29:23.980Z,15
2022-12-12T20:35:23.967Z,14
2022-12-12T20:41:23.969Z,14
2022-12-12T20:47:24.029Z,15
2022-12-12T20:53:24.017Z,14
2022-12-12T20:59:24.137Z,16
2022-12-12T21:05:23.995Z,16
2022-12-12T21:11:23.962Z,19
2022-12-12T21:17:23.931Z,24
2022-12-12T21:23:23.983Z,16
2022-12-12T21:29:23.937Z,17
2022-12-12T21:35:23.952Z,17
2022-12-12T21:41:24.034Z,17
2022-12-12T21:47:23.923Z,17
2022-12-12T21:53:23.958Z,18
2022-12-12T21:59:23.967Z,18
2022-12-12T22:05:23.965Z,17
2022-12-12T22:11:40.414Z,18
2022-12-12T22:17:23.947Z,23
2022-12-12T22:23:23.922Z,18
2022-12-12T22:29:23.937Z,19
2022-12-12T22:35:26.484Z,19
2022-12-12T22:41:23.911Z,20
2022-12-12T22:47:23.947Z,21
2022-12-12T22:53:23.973Z,27
2022-12-12T22:59:23.915Z,30
2022-12-12T23:05:24.073Z,42
2022-12-12T23:11:23.940Z,50
2022-12-12T23:17:23.927Z,49
2022-12-12T23:23:23.916Z,39
2022-12-12T23:29:23.954Z,41
2022-12-12T23:35:23.916Z,43
2022-12-12T23:41:23.905Z,43
2022-12-12T23:47:23.929Z,29
2022-12-12T23:53:23.899Z,23
2022-12-12T23:59:23.974Z,22
